Alba, TX

7:00 PM CDT on July 03, 2015 (GMT -0500)
Ray Branch - Lake Fork | | Change Station
CLOSE
Current Station
Personal Weather Station
Location: Alba, TX
Elevation: 420 ft
Nearby Weather Stations

Elev 420 ft 32.81 °N, 95.58 °W | Updated 1 minute ago

Partly Cloudy
Partly Cloudy
85.2 °F
Feels Like 97 °F
N
0.0
Wind Variable Wind from ENE
Gusts 2.0 mph

Today
High -- | Low -- °F
--% Chance of Precip.
Yesterday
High -- | Low -- °F
Precip. -- in
6:18 AM 8:34 PM
Waning Gibbous, 95% visible
Pressure 29.91 in
Visibility -9999.0 miles
Clouds Clear
Heat Index 97 °F
Dew Point 78 °F
Humidity 79%
Rainfall 0.00 in
Snow Depth Not available.
UV 0.6 out of 12
Pollen 3.60 out of 12
Air Quality Not available.
Flu Activity Not available.
METAR KJDD 032355Z AUTO 17003KT CLR 31/24 A2991 RMK AO2

More Conditions Fewer Conditions

Pressure 29.91 in
Visibility -9999.0 miles
Clouds Clear
Heat Index 97 °F
Dew Point 78 °F
Humidity 79%
Rainfall 0.00 in
Snow Depth Not available.
UV 0.6 out of 12
Pollen 3.60 out of 12
Air Quality Not available.
Flu Activity Not available.
METAR KJDD 032355Z AUTO 17003KT CLR 31/24 A2991 RMK AO2

More Conditions Fewer Conditions

Nowcast | as of 6:21 PM CDT on July 3, 2015

Scattered showers continued across East Texas...southeast Oklahoma...southwest Arkansas...and northwest Louisiana this evening. Rainfall amounts will average only a couple hundredths of an inch.

×

10-Day Weather Forecast

×

Almanac

Astronomy

Jul. 03, 2015 Rise Set
Actual Time
Civil Twilight
Nautical Twilight
Astronomical Twilight
Moon
Length of Visible Light
Length of Day
Tomorrow will be .
, % of the Moon is Illuminated

Today's Extremes

State Highs State Lows

Community

WunderPhotos

Upload Photos

1,834,831 photos uploaded!

WunderBlogs® & News

Nearby

Air Quality

  Air Quality AQ Index Pollutant
Not available.

Snow Depth

Station Depth Elevation

Earthquake Activity

City Distance Mag. Time & Date
Minimum magnitude displayed is 2.5.

Coastal Water Temperatures

Place Temperature

Stations

Nearby Weather Stations

Station Location Temp. Windchill Dew Point Humidity Wind Precip. Elev Updated Type